Time;durP1;ratioP1;P1;durP2;ratioP2;P2;SDS_P1;SDS_P2;PMS_P1;PMS_P2;Temp;Humidity;BMP_temperature;BMP_pressure;BME280_temperature;BME280_humidity;BME280_pressure;Samples;Min_cycle;Max_cycle;Signal;HPM_P1;HPM_P2
2021/04/04 00:02:05;;;;;;;10.98;6.22;;;;;;;19.01;60.21;103090.91;5028629;28;20147;-68
2021/04/04 00:04:30;;;;;;;9.18;6.00;;;;;;;19.01;60.00;103082.94;5027887;28;20310;-67
2021/04/04 00:06:56;;;;;;;9.00;5.75;;;;;;;19.00;60.07;103087.41;5011477;28;20199;-66
2021/04/04 00:09:21;;;;;;;7.93;5.35;;;;;;;19.01;60.00;103083.75;5026375;28;20025;-67
2021/04/04 00:11:48;;;;;;;9.32;6.38;;;;;;;19.00;60.00;103076.75;5010499;28;20060;-67
2021/04/04 00:14:15;;;;;;;7.97;5.95;;;;;;;18.99;60.04;103072.44;5011602;28;20492;-67
2021/04/04 00:16:40;;;;;;;7.20;5.60;;;;;;;18.99;60.02;103072.44;4994372;28;20032;-67
2021/04/04 00:19:06;;;;;;;8.85;6.18;;;;;;;18.98;60.11;103070.75;5009000;28;20421;-67
2021/04/04 00:21:33;;;;;;;8.10;6.10;;;;;;;18.99;59.86;103072.44;5028201;28;20040;-67
2021/04/04 00:23:58;;;;;;;7.82;5.50;;;;;;;18.98;60.07;103075.22;5029530;28;20033;-67
2021/04/04 00:26:24;;;;;;;7.72;5.75;;;;;;;18.97;59.96;103074.38;5026399;28;20072;-67
2021/04/04 00:28:49;;;;;;;8.43;5.60;;;;;;;18.98;60.12;103075.22;5028766;28;20041;-67
2021/04/04 00:31:15;;;;;;;7.60;5.82;;;;;;;18.97;59.93;103085.03;5027419;28;20049;-67
2021/04/04 00:33:40;;;;;;;8.45;5.93;;;;;;;18.98;60.13;103080.53;5035408;28;20033;-67
2021/04/04 00:36:06;;;;;;;9.90;5.63;;;;;;;18.97;60.04;103070.88;5037104;28;20459;-67
2021/04/04 00:38:31;;;;;;;7.55;5.60;;;;;;;18.97;59.63;103077.06;5009531;28;20038;-67
2021/04/04 00:40:57;;;;;;;10.20;5.70;;;;;;;18.96;59.73;103078.03;5027773;28;20108;-66
2021/04/04 00:43:23;;;;;;;8.00;5.88;;;;;;;18.97;59.78;103081.53;5027147;28;20503;-66
2021/04/04 00:45:48;;;;;;;8.98;5.28;;;;;;;18.97;59.97;103077.06;5008641;28;20163;-66
2021/04/04 00:48:14;;;;;;;7.22;6.10;;;;;;;18.96;59.85;103071.88;5030609;28;20115;-67
2021/04/04 00:50:40;;;;;;;9.20;6.30;;;;;;;18.96;59.68;103074.53;5012162;28;20040;-70
2021/04/04 00:53:07;;;;;;;8.73;5.55;;;;;;;18.96;59.48;103077.19;5018011;28;20049;-67
2021/04/04 00:55:34;;;;;;;8.57;5.72;;;;;;;18.95;59.69;103076.34;5026308;28;20393;-66
2021/04/04 00:58:00;;;;;;;7.68;5.65;;;;;;;18.95;59.88;103073.69;5027413;28;20040;-67
2021/04/04 01:00:27;;;;;;;7.63;5.90;;;;;;;18.94;59.58;103063.19;5030555;28;20041;-69
2021/04/04 01:02:55;;;;;;;7.85;6.07;;;;;;;18.94;59.78;103069.34;5028448;28;20035;-67
2021/04/04 01:05:25;;;;;;;8.82;6.03;;;;;;;18.94;59.80;103065.84;5026938;28;20511;-70
2021/04/04 01:07:50;;;;;;;8.45;6.60;;;;;;;18.93;59.88;103062.31;5014735;28;20099;-67
2021/04/04 01:10:17;;;;;;;7.80;5.78;;;;;;;18.94;60.15;103055.22;5027998;28;20068;-67
2021/04/04 01:12:55;;;;;;;7.18;6.05;;;;;;;18.94;60.00;103052.56;5026422;28;20030;-66
2021/04/04 01:15:32;;;;;;;7.00;5.70;;;;;;;18.92;60.06;103055.31;5008865;28;20044;-67
2021/04/04 01:18:02;;;;;;;8.82;6.18;;;;;;;18.93;60.16;103053.50;5025279;28;20050;-67
2021/04/04 01:20:34;;;;;;;9.30;5.57;;;;;;;18.92;60.09;103060.63;5023354;28;20041;-68
2021/04/04 01:23:32;;;;;;;7.88;5.75;;;;;;;18.90;60.33;103054.63;5031473;28;20132;-68
2021/04/04 01:26:08;;;;;;;8.68;6.03;;;;;;;18.92;60.47;103050.00;5031413;28;20878;-66
2021/04/04 01:28:43;;;;;;;8.02;5.70;;;;;;;18.91;60.27;103050.97;5013295;28;20052;-67
2021/04/04 01:31:10;;;;;;;8.02;6.25;;;;;;;18.92;60.12;103044.69;5013296;28;20052;-67
2021/04/04 01:33:37;;;;;;;7.38;5.88;;;;;;;18.93;60.60;103046.38;5037021;28;20048;-67
2021/04/04 01:36:05;;;;;;;9.07;6.10;;;;;;;18.92;60.39;103036.72;5039991;28;20045;-66
2021/04/04 01:38:33;;;;;;;7.00;5.93;;;;;;;18.92;60.46;103028.72;5031923;28;20124;-68
2021/04/04 01:41:46;;;;;;;8.80;6.07;;;;;;;18.90;60.49;103024.53;5023518;28;20037;-67
2021/04/04 01:44:17;;;;;;;8.23;6.43;;;;;;;18.90;60.21;103024.53;4952484;28;20022;-68
2021/04/04 01:46:46;;;;;;;7.70;5.90;;;;;;;18.90;60.13;103022.72;5021391;28;20041;-68
2021/04/04 01:49:13;;;;;;;8.80;6.03;;;;;;;18.92;60.71;103020.75;5015606;28;20035;-67
2021/04/04 01:51:40;;;;;;;7.95;5.63;;;;;;;18.91;60.23;103016.41;5030722;28;20124;-66
2021/04/04 01:54:07;;;;;;;7.88;5.60;;;;;;;18.91;60.08;103011.09;5030473;28;20037;-67
2021/04/04 01:56:34;;;;;;;7.50;6.13;;;;;;;18.91;60.35;103018.22;5028931;28;20037;-67
2021/04/04 01:59:01;;;;;;;7.00;5.53;;;;;;;18.91;59.94;103018.22;5030779;28;20022;-66
2021/04/04 02:01:28;;;;;;;8.02;5.45;;;;;;;18.90;60.00;103014.72;5017891;28;20033;-67
2021/04/04 02:03:58;;;;;;;8.55;6.07;;;;;;;18.89;60.02;103009.56;5030794;28;20045;-68
2021/04/04 02:06:24;;;;;;;7.22;5.85;;;;;;;18.89;59.96;103005.06;5031215;28;20502;-67
2021/04/04 02:08:51;;;;;;;7.97;6.05;;;;;;;18.90;60.18;103005.91;5031679;28;20072;-67
2021/04/04 02:11:18;;;;;;;8.70;6.53;;;;;;;18.89;60.22;102999.75;5029818;28;20400;-67
2021/04/04 02:13:47;;;;;;;7.93;5.57;;;;;;;18.88;60.09;102998.06;5030882;28;20029;-68
2021/04/04 02:16:13;;;;;;;7.22;5.82;;;;;;;18.88;60.13;102995.41;5030209;28;20039;-67
2021/04/04 02:18:42;;;;;;;8.00;6.32;;;;;;;18.88;59.98;102994.56;5013061;28;20120;-67
2021/04/04 02:21:08;;;;;;;9.15;6.25;;;;;;;18.88;60.07;102990.09;5029203;28;20186;-68
2021/04/04 02:23:34;;;;;;;6.88;5.65;;;;;;;18.88;59.72;102994.56;5034113;28;20218;-67
2021/04/04 02:25:59;;;;;;;7.65;5.75;;;;;;;18.87;59.82;102993.75;5028953;28;20204;-67
2021/04/04 02:28:25;;;;;;;8.35;6.00;;;;;;;18.88;59.87;102983.94;5035862;28;20536;-67
2021/04/04 02:30:52;;;;;;;7.45;6.03;;;;;;;18.88;59.72;102983.94;5012968;28;20052;-68
2021/04/04 02:33:25;;;;;;;7.47;5.82;;;;;;;18.87;59.93;102983.09;5005628;28;20041;-67
2021/04/04 02:35:55;;;;;;;8.05;6.18;;;;;;;18.87;59.91;102971.63;5038382;28;20037;-67
2021/04/04 02:38:31;;;;;;;7.43;5.50;;;;;;;18.86;60.05;102970.78;5030302;28;20083;-67
2021/04/04 02:40:58;;;;;;;8.13;6.00;;;;;;;18.87;60.01;102961.81;5029626;28;20034;-68
2021/04/04 02:43:28;;;;;;;7.63;5.57;;;;;;;18.86;59.95;102965.47;5029032;28;20044;-68
2021/04/04 02:45:56;;;;;;;7.22;5.88;;;;;;;18.86;59.50;102970.78;5028783;28;20400;-67
2021/04/04 02:48:32;;;;;;;6.82;5.85;;;;;;;18.85;59.51;102969.09;5028303;28;20044;-67
2021/04/04 02:51:02;;;;;;;9.82;6.07;;;;;;;18.85;59.88;102964.63;5030268;28;20179;-67
2021/04/04 02:53:29;;;;;;;8.77;5.75;;;;;;;18.85;59.63;102956.66;5016591;28;20036;-67
2021/04/04 02:55:58;;;;;;;9.32;6.55;;;;;;;18.84;59.68;102956.78;5029312;28;20392;-65
2021/04/04 02:58:26;;;;;;;7.85;6.50;;;;;;;18.84;59.52;102962.13;5029927;28;20037;-65
2021/04/04 03:00:58;;;;;;;8.57;6.25;;;;;;;18.84;59.89;102964.78;5028808;28;20057;-67
2021/04/04 03:03:27;;;;;;;7.72;6.05;;;;;;;18.84;59.48;102954.97;5038053;28;20038;-67
2021/04/04 03:05:56;;;;;;;8.88;6.45;;;;;;;18.84;59.41;102957.63;5028666;28;20021;-67
2021/04/04 03:08:23;;;;;;;8.07;6.22;;;;;;;18.83;59.70;102942.66;5029610;28;20152;-67
2021/04/04 03:10:51;;;;;;;7.60;5.78;;;;;;;18.83;59.66;102945.31;5028082;28;20037;-67
2021/04/04 03:13:20;;;;;;;7.95;5.78;;;;;;;18.82;59.58;102932.16;5029694;28;20057;-67
2021/04/04 03:15:47;;;;;;;8.98;6.40;;;;;;;18.83;59.67;102934.69;5032377;28;20036;-68
2021/04/04 03:18:14;;;;;;;8.60;6.40;;;;;;;18.83;59.46;102933.84;5012581;28;20041;-67
2021/04/04 03:20:39;;;;;;;7.15;5.93;;;;;;;18.82;59.77;102930.34;5027506;28;20033;-67
2021/04/04 03:23:06;;;;;;;8.30;6.47;;;;;;;18.82;59.41;102934.81;5029213;28;20144;-66
2021/04/04 03:25:31;;;;;;;7.40;6.03;;;;;;;18.82;59.49;102932.16;5010765;28;20061;-68
2021/04/04 03:27:59;;;;;;;8.07;6.10;;;;;;;18.82;59.68;102922.38;5028392;28;20075;-67
2021/04/04 03:30:43;;;;;;;7.93;5.88;;;;;;;18.80;59.29;102919.00;5028701;28;20048;-67
2021/04/04 03:33:13;;;;;;;7.40;5.93;;;;;;;18.79;59.32;102911.19;5038683;28;20028;-67
2021/04/04 03:35:39;;;;;;;8.38;6.15;;;;;;;18.80;59.75;102899.56;5030459;28;20033;-68
2021/04/04 03:38:08;;;;;;;8.35;5.90;;;;;;;18.80;59.45;102912.84;5028363;28;20301;-66
2021/04/04 03:40:33;;;;;;;7.45;5.65;;;;;;;18.80;59.66;102919.00;5033590;28;20037;-67
2021/04/04 03:43:03;;;;;;;6.90;5.35;;;;;;;18.80;59.44;102913.69;5028971;28;20044;-67
2021/04/04 03:45:29;;;;;;;8.35;5.97;;;;;;;18.80;59.94;102916.34;5027945;28;20029;-67
2021/04/04 03:47:56;;;;;;;7.57;6.28;;;;;;;18.79;59.73;102911.19;5027834;28;20128;-67
2021/04/04 03:50:22;;;;;;;7.82;5.60;;;;;;;18.79;59.85;102917.34;5011560;28;20092;-67
2021/04/04 03:52:50;;;;;;;8.45;6.43;;;;;;;18.79;59.56;102916.50;5029986;28;20033;-67
2021/04/04 03:55:20;;;;;;;6.93;5.68;;;;;;;18.79;59.81;102911.19;5028618;28;20104;-67
2021/04/04 03:57:48;;;;;;;9.05;6.47;;;;;;;18.78;59.70;102907.69;5027113;28;20033;-67
2021/04/04 04:00:17;;;;;;;7.32;5.90;;;;;;;18.78;60.04;102907.69;5028164;28;20133;-67
2021/04/04 04:02:44;;;;;;;7.50;5.68;;;;;;;18.78;59.97;102909.50;5028802;28;20116;-67
2021/04/04 04:05:11;;;;;;;8.50;5.93;;;;;;;18.78;59.78;102907.69;5033951;28;20124;-67
2021/04/04 04:07:39;;;;;;;7.25;6.10;;;;;;;18.78;59.87;102898.88;5027346;28;20034;-66
2021/04/04 04:10:05;;;;;;;8.05;5.93;;;;;;;18.77;59.89;102894.50;5028907;28;20040;-68
2021/04/04 04:12:33;;;;;;;7.78;6.38;;;;;;;18.77;59.78;102892.69;5025756;28;20084;-66
2021/04/04 04:14:59;;;;;;;9.07;6.18;;;;;;;18.76;59.97;102890.16;5034519;28;20064;-68
2021/04/04 04:17:26;;;;;;;6.65;5.43;;;;;;;18.75;59.59;102896.47;5027393;28;20037;-67
2021/04/04 04:19:52;;;;;;;8.75;6.07;;;;;;;18.76;59.90;102898.97;5027634;28;20692;-67
2021/04/04 04:22:19;;;;;;;7.55;6.22;;;;;;;18.75;59.88;102885.81;5028015;28;20046;-67
2021/04/04 04:24:54;;;;;;;8.00;6.20;;;;;;;18.73;59.72;102880.66;5010679;28;20137;-67
2021/04/04 04:27:20;;;;;;;;;;;;;;;18.70;59.97;102890.75;5026157;28;20084;-71
2021/04/04 04:29:49;;;;;;;6.70;5.70;;;;;;;18.73;59.69;102893.09;5029043;28;19928;-67
2021/04/04 04:32:18;;;;;;;7.47;5.75;;;;;;;18.74;59.75;102897.44;5028434;28;20036;-67
2021/04/04 04:34:44;;;;;;;8.18;6.10;;;;;;;18.73;59.91;102893.09;5037286;28;20033;-68
2021/04/04 04:37:13;;;;;;;7.82;5.95;;;;;;;18.73;59.66;102888.63;5037151;28;20444;-66
2021/04/04 04:39:41;;;;;;;7.53;5.68;;;;;;;18.73;59.55;102880.66;5028420;28;20138;-67
2021/04/04 04:42:10;;;;;;;6.85;5.50;;;;;;;18.73;59.42;102885.13;5026733;28;20056;-67
2021/04/04 04:44:38;;;;;;;7.50;5.93;;;;;;;18.74;59.61;102881.50;5027860;28;20103;-67
2021/04/04 04:47:05;;;;;;;8.15;5.95;;;;;;;18.73;59.50;102875.34;5009740;28;20036;-67
2021/04/04 04:49:30;;;;;;;7.22;6.18;;;;;;;18.73;59.42;102871.84;5039244;28;20094;-67
2021/04/04 04:51:56;;;;;;;9.27;6.55;;;;;;;18.73;59.71;102871.84;5027997;28;20045;-67
2021/04/04 04:54:22;;;;;;;6.97;5.90;;;;;;;18.72;59.71;102865.69;5027939;28;20033;-67
2021/04/04 04:56:48;;;;;;;6.75;5.85;;;;;;;18.73;59.54;102869.19;5007764;28;20049;-67
2021/04/04 04:59:14;;;;;;;8.23;5.80;;;;;;;18.72;59.51;102862.19;5027777;28;20048;-67
2021/04/04 05:01:48;;;;;;;7.82;6.05;;;;;;;18.71;59.49;102856.03;5028788;28;20410;-69
2021/04/04 05:04:14;;;;;;;7.03;6.17;;;;;;;18.70;59.30;102848.19;5027246;28;20515;-67
2021/04/04 05:06:42;;;;;;;6.47;5.43;;;;;;;18.70;59.30;102849.03;5028192;28;20266;-67
2021/04/04 05:09:09;;;;;;;8.45;6.05;;;;;;;18.71;59.71;102849.88;5026709;28;20109;-68
2021/04/04 05:11:40;;;;;;;7.88;5.88;;;;;;;18.70;59.33;102845.53;5027061;28;20476;-67
2021/04/04 05:14:08;;;;;;;7.32;5.68;;;;;;;18.71;59.33;102850.72;5041208;28;20071;-67
2021/04/04 05:16:34;;;;;;;6.88;5.63;;;;;;;18.71;59.42;102847.22;5027667;28;20412;-67
2021/04/04 05:18:59;;;;;;;8.57;6.00;;;;;;;18.70;59.47;102850.84;5026151;28;20037;-67
2021/04/04 05:21:27;;;;;;;8.70;6.10;;;;;;;18.70;59.40;102856.19;5009943;28;20049;-67
2021/04/04 05:24:10;;;;;;;6.32;5.38;;;;;;;18.69;59.46;102857.16;5028641;28;20034;-67
2021/04/04 05:26:47;;;;;;;7.18;5.75;;;;;;;18.68;59.57;102848.34;5009007;28;20483;-68
2021/04/04 05:29:14;;;;;;;7.22;5.72;;;;;;;18.70;59.41;102840.22;5026842;28;20055;-67
2021/04/04 05:31:53;;;;;;;7.57;5.95;;;;;;;18.69;59.29;102835.88;5027340;28;20494;-67
2021/04/04 05:34:29;;;;;;;8.00;5.57;;;;;;;18.68;59.17;102834.22;5008392;28;20366;-68
2021/04/04 05:37:03;;;;;;;7.03;5.65;;;;;;;18.68;59.18;102826.25;5028411;28;20049;-68
2021/04/04 05:39:32;;;;;;;6.65;5.13;;;;;;;18.69;59.23;102825.25;5011035;28;20139;-67
2021/04/04 05:42:00;;;;;;;7.40;5.72;;;;;;;18.66;59.28;102813.09;5026607;28;20105;-67
2021/04/04 05:44:31;;;;;;;7.05;5.65;;;;;;;18.67;59.15;102805.97;5026764;28;20041;-68
2021/04/04 05:47:17;;;;;;;7.38;5.78;;;;;;;18.65;59.23;102813.25;5028104;28;20104;-67
2021/04/04 05:50:03;;;;;;;6.55;4.85;;;;;;;18.63;59.22;102810.72;5020527;28;20551;-67
2021/04/04 05:52:32;;;;;;;7.68;5.85;;;;;;;18.65;58.81;102800.78;5027247;28;20123;-67
2021/04/04 05:55:06;;;;;;;7.15;5.85;;;;;;;18.63;59.32;102805.41;5026811;28;20108;-67
2021/04/04 05:57:41;;;;;;;;;;;;;;;18.59;59.06;102803.97;5036646;28;20109;-67
2021/04/04 06:00:10;;;;;;;7.68;5.70;;;;;;;18.64;58.74;102798.28;5008684;28;19948;-67
2021/04/04 06:03:10;;;;;;;7.93;6.05;;;;;;;18.62;59.29;102808.16;5027437;28;20524;-68
2021/04/04 06:05:35;;;;;;;6.97;5.78;;;;;;;18.62;59.00;102803.69;4983527;28;20105;-68
2021/04/04 06:08:29;;;;;;;7.10;5.38;;;;;;;18.60;59.09;102810.13;5031475;28;20461;-67
2021/04/04 06:11:33;;;;;;;7.10;5.60;;;;;;;18.58;59.02;102804.09;5028489;28;20037;-67
2021/04/04 06:14:30;;;;;;;8.07;6.15;;;;;;;18.59;59.10;102808.44;5013699;28;20103;-68
2021/04/04 06:17:01;;;;;;;8.15;5.72;;;;;;;18.61;59.00;102811.78;5025380;28;20042;-67
2021/04/04 06:19:47;;;;;;;7.40;6.20;;;;;;;18.60;59.21;102810.13;5012066;28;20108;-66
2021/04/04 06:22:24;;;;;;;7.32;5.65;;;;;;;18.60;59.07;102821.59;5029072;28;20037;-67
2021/04/04 06:25:01;;;;;;;7.18;5.50;;;;;;;18.59;58.99;102813.75;5035090;28;20112;-67
2021/04/04 06:27:47;;;;;;;7.45;5.45;;;;;;;18.59;59.17;102814.59;5031328;28;20045;-70
2021/04/04 06:33:26;;;;;;;9.20;5.80;;;;;;;18.59;58.91;102814.59;5029775;28;20064;-67
2021/04/04 06:36:03;;;;;;;7.32;5.93;;;;;;;18.58;59.05;102804.09;5030080;28;20077;-67
2021/04/04 06:38:36;;;;;;;6.75;5.10;;;;;;;18.59;58.89;102805.78;5030568;28;20029;-67
2021/04/04 06:41:04;;;;;;;7.10;5.53;;;;;;;18.58;58.82;102806.75;5029064;28;20076;-67
2021/04/04 06:43:53;;;;;;;6.22;5.22;;;;;;;18.57;59.21;102819.22;5029964;28;20040;-67
2021/04/04 06:46:22;;;;;;;6.25;5.07;;;;;;;18.60;58.98;102821.59;5029773;28;20022;-68
2021/04/04 06:49:15;;;;;;;6.72;5.32;;;;;;;18.59;58.93;102819.06;5037996;28;20030;-67
2021/04/04 06:51:58;;;;;;;7.05;5.78;;;;;;;18.59;58.99;102808.44;5029706;28;20084;-67
2021/04/04 06:54:48;;;;;;;7.50;5.50;;;;;;;18.60;58.60;102821.59;5029116;28;20061;-67
2021/04/04 06:57:28;;;;;;;6.22;5.13;;;;;;;18.61;59.13;102812.63;5028876;28;20029;-68
2021/04/04 07:00:13;;;;;;;13.73;5.95;;;;;;;18.60;59.11;102807.44;5038151;28;20094;-74
2021/04/04 07:02:46;;;;;;;7.53;5.43;;;;;;;18.64;58.77;102800.94;4997143;28;20425;-79
2021/04/04 07:05:13;;;;;;;9.60;5.15;;;;;;;18.64;58.87;102804.44;5025001;28;20083;-76
2021/04/04 07:08:01;;;;;;;8.30;5.93;;;;;;;18.62;59.04;102797.50;5022363;28;20579;-80
2021/04/04 07:10:54;;;;;;;7.63;5.00;;;;;;;18.66;59.08;102801.63;5023863;28;20029;-74
2021/04/04 07:13:58;;;;;;;7.53;5.07;;;;;;;18.67;59.51;102800.63;5023284;28;20112;-77
2021/04/04 07:16:57;;;;;;;6.63;4.90;;;;;;;18.68;59.43;102797.84;5004325;28;20098;-77
2021/04/04 07:19:58;;;;;;;7.10;4.78;;;;;;;18.69;59.81;102794.19;5025289;28;20067;-75
2021/04/04 07:22:36;;;;;;;11.02;5.75;;;;;;;18.72;59.63;102788.59;5023828;28;20459;-78
2021/04/04 07:25:33;;;;;;;15.45;5.03;;;;;;;18.73;59.91;102784.09;5024753;28;20041;-77
2021/04/04 07:28:11;;;;;;;8.77;5.28;;;;;;;18.73;59.92;102782.28;5024830;28;20095;-80
2021/04/04 07:31:00;;;;;;;6.72;5.15;;;;;;;18.74;60.06;102780.47;5025328;28;20029;-71
2021/04/04 07:34:02;;;;;;;15.07;5.35;;;;;;;18.73;60.51;102784.94;5025389;28;20115;-70
2021/04/04 07:36:49;;;;;;;8.52;5.22;;;;;;;18.78;60.79;102796.00;5031452;28;20137;-75
2021/04/04 07:39:28;;;;;;;12.05;5.82;;;;;;;18.77;60.63;102785.50;5030730;28;20036;-73
2021/04/04 07:42:21;;;;;;;12.00;5.95;;;;;;;18.78;60.20;102779.22;5023374;28;20040;-76
2021/04/04 07:44:55;;;;;;;11.60;5.60;;;;;;;18.79;60.15;102770.25;5027164;28;20029;-73
2021/04/04 07:47:57;;;;;;;9.93;6.15;;;;;;;18.77;60.35;102769.53;5026354;28;20059;-79
2021/04/04 07:50:30;;;;;;;11.60;5.65;;;;;;;18.80;60.10;102782.56;5022068;28;20119;-79
2021/04/04 07:53:11;;;;;;;10.70;5.85;;;;;;;18.77;59.77;102786.31;5024547;28;20049;-76
2021/04/04 07:55:51;;;;;;;13.77;6.38;;;;;;;18.78;59.98;102776.56;5009437;28;20033;-71
2021/04/04 07:58:35;;;;;;;15.82;6.43;;;;;;;18.79;59.81;102778.22;5028374;28;20112;-73
2021/04/04 08:01:23;;;;;;;13.90;5.95;;;;;;;18.76;59.93;102778.50;5033566;28;20033;-76
2021/04/04 08:03:59;;;;;;;12.30;5.70;;;;;;;18.78;59.38;102776.56;5025695;28;20049;-72
2021/04/04 08:06:30;;;;;;;15.40;6.13;;;;;;;18.77;59.35;102751.75;5028450;28;20053;-71
2021/04/04 08:09:04;;;;;;;12.63;6.20;;;;;;;18.77;59.10;102745.59;5027271;28;20029;-71
2021/04/04 08:11:47;;;;;;;11.50;6.28;;;;;;;18.75;58.91;102740.44;5013871;28;20384;-71
2021/04/04 08:14:26;;;;;;;14.10;6.35;;;;;;;18.75;58.58;102744.91;5028828;28;20033;-71
2021/04/04 08:16:59;;;;;;;15.07;6.43;;;;;;;18.75;58.23;102739.59;5024702;28;20033;-68
2021/04/04 08:19:25;;;;;;;16.88;6.20;;;;;;;18.75;58.15;102747.56;5024388;28;20057;-69
2021/04/04 08:22:01;;;;;;;10.35;6.18;;;;;;;18.73;58.08;102753.03;5025092;28;20048;-68
2021/04/04 08:24:38;;;;;;;19.17;6.72;;;;;;;18.72;57.33;102766.47;5032250;28;20108;-70
2021/04/04 08:27:06;;;;;;;12.52;6.45;;;;;;;18.72;57.59;102755.84;5010812;28;20057;-69
2021/04/04 08:29:42;;;;;;;10.05;5.88;;;;;;;18.72;57.21;102758.50;5023590;28;20037;-69
2021/04/04 08:32:11;;;;;;;14.40;6.65;;;;;;;18.71;57.30;102739.06;5024703;28;20154;-75
2021/04/04 08:34:40;;;;;;;11.02;6.00;;;;;;;18.70;56.86;102734.72;5024259;28;20036;-70
2021/04/04 08:37:14;;;;;;;11.43;7.03;;;;;;;18.68;56.89;102731.38;5021074;28;20131;-71
2021/04/04 08:39:47;;;;;;;11.80;6.60;;;;;;;18.70;56.59;102739.19;5006824;28;20496;-72
2021/04/04 08:42:16;;;;;;;9.90;6.78;;;;;;;18.70;56.37;102733.88;5005618;28;20087;-70
2021/04/04 08:44:49;;;;;;;10.13;6.43;;;;;;;18.69;56.70;102742.84;5024202;28;20029;-69
2021/04/04 08:47:28;;;;;;;12.30;7.38;;;;;;;18.67;56.15;102748.31;5027190;28;20041;-69
2021/04/04 08:49:55;;;;;;;14.77;8.05;;;;;;;18.69;56.38;102742.84;5024053;28;20040;-69
2021/04/04 08:52:32;;;;;;;17.70;8.65;;;;;;;18.67;56.15;102758.09;5024856;28;20033;-69
2021/04/04 08:54:58;;;;;;;19.60;13.10;;;;;;;18.68;55.96;102759.78;5023355;28;20029;-70
2021/04/04 08:57:30;;;;;;;15.60;10.00;;;;;;;18.66;55.67;102749.28;5031557;28;20037;-71
2021/04/04 08:59:56;;;;;;;62.35;38.65;;;;;;;18.66;55.35;102746.63;5024684;28;20018;-71
2021/04/04 09:02:26;;;;;;;97.63;62.40;;;;;;;18.65;55.09;102739.66;5024826;28;20025;-71
2021/04/04 09:04:52;;;;;;;92.97;62.80;;;;;;;18.66;54.87;102740.47;5005933;28;20037;-72
2021/04/04 09:07:20;;;;;;;75.53;51.13;;;;;;;18.65;54.59;102746.78;5022309;28;20037;-73
2021/04/04 09:09:49;;;;;;;95.80;61.15;;;;;;;18.65;54.74;102744.97;5023237;28;20026;-71
2021/04/04 09:12:16;;;;;;;75.85;48.85;;;;;;;18.66;54.52;102759.09;5023454;28;20049;-73
2021/04/04 09:14:43;;;;;;;59.17;35.13;;;;;;;18.66;54.72;102759.09;5005205;28;20041;-71
2021/04/04 09:17:15;;;;;;;50.72;34.45;;;;;;;18.66;54.63;102757.28;5023368;28;20033;-72
2021/04/04 09:19:45;;;;;;;42.40;28.70;;;;;;;18.66;54.16;102767.91;5024576;28;20056;-70
2021/04/04 09:22:16;;;;;;;48.70;29.92;;;;;;;18.65;54.21;102768.06;5024391;28;20021;-72
2021/04/04 09:24:52;;;;;;;33.42;23.17;;;;;;;18.65;53.85;102760.06;5023480;28;20040;-72
2021/04/04 09:27:20;;;;;;;33.80;22.90;;;;;;;18.67;54.50;102758.94;5021922;28;20058;-72
2021/04/04 09:29:50;;;;;;;32.05;21.23;;;;;;;18.65;54.14;102754.75;5005652;28;20141;-71
2021/04/04 09:32:27;;;;;;;28.85;17.63;;;;;;;18.65;54.03;102741.47;5021973;28;20061;-72
2021/04/04 09:34:54;;;;;;;27.88;18.55;;;;;;;18.66;53.83;102724.53;5020906;28;20034;-73
2021/04/04 09:37:22;;;;;;;26.08;16.73;;;;;;;18.67;53.61;102718.22;5025492;28;20481;-73
2021/04/04 09:39:49;;;;;;;21.13;13.18;;;;;;;18.67;53.20;102720.88;5027760;28;20122;-72
2021/04/04 09:42:15;;;;;;;21.58;13.63;;;;;;;18.66;53.02;102716.56;5009364;28;20045;-70
2021/04/04 09:44:40;;;;;;;20.63;12.57;;;;;;;18.68;52.73;102718.09;5027596;28;20053;-71
2021/04/04 09:47:06;;;;;;;15.63;10.15;;;;;;;18.67;52.75;102720.88;5030560;28;20148;-72
2021/04/04 09:49:41;;;;;;;20.17;10.95;;;;;;;18.66;52.70;102714.75;5033446;28;20034;-72
2021/04/04 09:52:28;;;;;;;15.68;8.57;;;;;;;18.63;52.39;102695.56;5019096;28;20069;-69
2021/04/04 09:55:17;;;;;;;14.43;9.10;;;;;;;18.62;51.75;102684.09;5011184;28;20034;-69
2021/04/04 09:57:50;;;;;;;15.75;8.43;;;;;;;18.60;51.42;102666.59;5020857;28;20084;-69
2021/04/04 10:00:16;;;;;;;14.35;8.43;;;;;;;18.54;50.69;102658.22;5025239;28;20041;-70
2021/04/04 10:02:42;;;;;;;16.30;8.02;;;;;;;18.49;50.08;102660.47;5012746;28;20079;-70
2021/04/04 10:05:08;;;;;;;16.05;7.80;;;;;;;18.43;49.87;102663.69;5029414;28;20033;-71
2021/04/04 10:07:33;;;;;;;17.17;7.80;;;;;;;18.39;49.96;102659.66;5025809;28;20154;-71
2021/04/04 10:10:00;;;;;;;14.27;7.22;;;;;;;18.37;49.68;102648.34;5034887;28;20033;-70
2021/04/04 10:12:27;;;;;;;13.90;7.15;;;;;;;18.34;49.31;102645.97;5030292;28;20052;-71
2021/04/04 10:15:05;;;;;;;16.40;7.88;;;;;;;18.31;49.32;102634.81;5028683;28;20037;-70
2021/04/04 10:17:31;;;;;;;17.27;7.50;;;;;;;18.29;49.13;102626.94;5030536;28;20839;-71
2021/04/04 10:19:59;;;;;;;14.05;7.18;;;;;;;18.27;49.17;102623.59;5029652;28;20128;-71
2021/04/04 10:22:25;;;;;;;15.45;7.40;;;;;;;18.26;49.15;102620.09;5032011;28;20030;-71
2021/04/04 10:24:51;;;;;;;14.95;7.18;;;;;;;18.25;49.13;102614.94;5041038;28;20030;-71
2021/04/04 10:27:23;;;;;;;14.95;6.57;;;;;;;18.23;48.82;102606.28;5035227;28;20045;-69
2021/04/04 10:30:02;;;;;;;15.07;6.97;;;;;;;18.21;48.90;102611.75;5018506;28;20034;-68
2021/04/04 10:32:28;;;;;;;11.45;6.35;;;;;;;18.21;49.42;102606.44;5028867;28;20384;-69
2021/04/04 10:34:54;;;;;;;12.35;6.15;;;;;;;18.21;49.64;102608.25;5030569;28;20037;-69
2021/04/04 10:37:29;;;;;;;15.90;6.43;;;;;;;18.21;49.29;102613.56;5030240;28;20067;-72
2021/04/04 10:40:06;;;;;;;11.38;5.78;;;;;;;18.21;48.96;102610.91;5032050;28;20046;-69
2021/04/04 10:42:32;;;;;;;11.70;6.43;;;;;;;18.22;49.42;102602.78;5028775;28;20029;-73
2021/04/04 10:45:15;;;;;;;10.90;6.22;;;;;;;18.20;49.17;102585.34;5000361;28;20409;-69
2021/04/04 10:47:43;;;;;;;11.68;6.10;;;;;;;18.24;49.12;102592.03;5011383;28;20433;-66
2021/04/04 10:50:18;;;;;;;11.50;6.03;;;;;;;18.22;49.35;102594.00;5011835;28;20129;-67
2021/04/04 10:52:45;;;;;;;10.35;5.47;;;;;;;18.25;49.00;102606.97;5041800;28;20037;-70
2021/04/04 10:55:12;;;;;;;11.00;5.97;;;;;;;18.24;49.07;102607.97;5017341;28;20053;-67
2021/04/04 10:57:38;;;;;;;10.63;5.13;;;;;;;18.23;49.19;102604.47;5028684;28;20109;-66
2021/04/04 11:00:07;;;;;;;11.13;5.88;;;;;;;18.25;49.46;102613.13;5012485;28;20083;-69
2021/04/04 11:02:36;;;;;;;11.48;5.68;;;;;;;18.25;49.12;102597.19;5015481;28;20025;-69
2021/04/04 11:05:02;;;;;;;9.75;5.25;;;;;;;18.26;49.28;102596.19;5030620;28;20049;-69
2021/04/04 11:07:29;;;;;;;12.80;5.32;;;;;;;18.26;49.38;102590.88;5029594;28;20118;-69
2021/04/04 11:09:54;;;;;;;8.88;5.15;;;;;;;18.25;49.11;102597.19;5029191;28;20036;-70
2021/04/04 11:12:21;;;;;;;8.10;5.07;;;;;;;18.27;48.94;102597.03;5010171;28;20996;-72
2021/04/04 11:14:48;;;;;;;9.13;5.63;;;;;;;18.25;49.00;102578.59;5011829;28;20128;-70
2021/04/04 11:17:19;;;;;;;10.23;5.30;;;;;;;18.26;49.15;102577.59;5011884;28;20042;-69
2021/04/04 11:19:47;;;;;;;7.80;4.55;;;;;;;18.28;49.57;102574.81;5010280;28;20033;-69
2021/04/04 11:22:16;;;;;;;10.07;5.60;;;;;;;18.28;49.54;102580.13;5028721;28;20025;-68
2021/04/04 11:25:00;;;;;;;9.73;5.18;;;;;;;18.26;49.56;102590.06;5029077;28;20029;-69
2021/04/04 11:27:42;;;;;;;10.02;5.13;;;;;;;18.26;49.69;102590.06;5020808;28;20195;-70
2021/04/04 11:30:14;;;;;;;14.32;6.10;;;;;;;18.27;49.60;102587.25;5029635;28;20124;-68
2021/04/04 11:32:44;;;;;;;12.45;5.70;;;;;;;18.27;49.70;102595.22;5025986;28;20064;-68
2021/04/04 11:35:11;;;;;;;12.45;5.22;;;;;;;18.30;49.99;102579.97;5028513;28;20029;-67
2021/04/04 11:37:39;;;;;;;14.25;5.45;;;;;;;18.30;50.07;102580.81;5028453;28;20037;-68
2021/04/04 11:40:18;;;;;;;14.63;5.72;;;;;;;18.30;50.08;102596.75;5030192;28;20037;-67
2021/04/04 11:42:46;;;;;;;14.57;5.70;;;;;;;18.34;50.37;102594.66;5027614;28;20101;-66
2021/04/04 11:45:12;;;;;;;13.38;6.10;;;;;;;18.34;50.41;102603.47;5011234;28;20464;-66
2021/04/04 11:47:39;;;;;;;15.55;6.40;;;;;;;18.36;50.50;102582.91;5026709;28;20164;-69